Lund, Texas
Current Conditions -  °F | °C
As of 5:35 PM on Thursday 18 Dec 2014 (Local Time) from KEDC Reporting Station
Overcast Overcast  
Wind Chill: 55°   Ceiling: 600
Heat Index: 55°   Visibility: 9mi
Dew Point: 54°   Wind: 9mph
Humidity: 94%   Direction: 40°NE
Pressure: 30.07"   Gusts: NA
Location:  30.2988°N, 97.3874°W
Report Text: KEDC 182335Z AUTO 04008KT 9SM OVC006 13/12 A3007 RMK AO2
Loading
Personal Weather Stations






























Interactive Weather Map New forecast layout! Learn more

10-Day Weather Forecast

Advertisements
Track Severe Weather on mobile